sensor_id;sensor_type;location;lat;lon;timestamp;P1;durP1;ratioP1;P2;durP2;ratioP2
6725;SDS011;3400;48.506;11.692;2023-08-21T00:01:59;5.10;;;4.60;;
6725;SDS011;3400;48.506;11.692;2023-08-21T00:04:27;4.50;;;4.10;;
6725;SDS011;3400;48.506;11.692;2023-08-21T00:06:54;4.30;;;4.00;;
6725;SDS011;3400;48.506;11.692;2023-08-21T00:09:22;7.70;;;4.80;;
6725;SDS011;3400;48.506;11.692;2023-08-21T00:11:50;4.77;;;4.23;;
6725;SDS011;3400;48.506;11.692;2023-08-21T00:14:17;5.30;;;4.83;;
6725;SDS011;3400;48.506;11.692;2023-08-21T00:16:47;4.40;;;4.10;;
6725;SDS011;3400;48.506;11.692;2023-08-21T00:19:14;5.17;;;4.77;;
6725;SDS011;3400;48.506;11.692;2023-08-21T00:21:42;5.20;;;4.70;;
6725;SDS011;3400;48.506;11.692;2023-08-21T00:24:10;5.27;;;4.77;;
6725;SDS011;3400;48.506;11.692;2023-08-21T00:26:37;5.73;;;5.23;;
6725;SDS011;3400;48.506;11.692;2023-08-21T00:29:05;5.80;;;5.30;;
6725;SDS011;3400;48.506;11.692;2023-08-21T00:31:33;6.93;;;5.00;;
6725;SDS011;3400;48.506;11.692;2023-08-21T00:34:02;8.13;;;5.50;;
6725;SDS011;3400;48.506;11.692;2023-08-21T00:36:29;5.23;;;4.83;;
6725;SDS011;3400;48.506;11.692;2023-08-21T00:38:57;5.57;;;5.10;;
6725;SDS011;3400;48.506;11.692;2023-08-21T00:41:25;5.80;;;5.30;;
6725;SDS011;3400;48.506;11.692;2023-08-21T00:43:53;5.53;;;5.03;;
6725;SDS011;3400;48.506;11.692;2023-08-21T00:46:21;5.30;;;4.87;;
6725;SDS011;3400;48.506;11.692;2023-08-21T00:48:49;5.40;;;4.80;;
6725;SDS011;3400;48.506;11.692;2023-08-21T00:51:18;5.33;;;4.93;;
6725;SDS011;3400;48.506;11.692;2023-08-21T00:53:46;5.37;;;4.97;;
6725;SDS011;3400;48.506;11.692;2023-08-21T00:56:14;5.17;;;4.77;;
6725;SDS011;3400;48.506;11.692;2023-08-21T00:58:42;5.70;;;5.20;;
6725;SDS011;3400;48.506;11.692;2023-08-21T01:01:10;5.33;;;4.87;;
6725;SDS011;3400;48.506;11.692;2023-08-21T01:03:39;6.17;;;5.57;;
6725;SDS011;3400;48.506;11.692;2023-08-21T01:06:07;6.40;;;4.93;;
6725;SDS011;3400;48.506;11.692;2023-08-21T01:08:42;4.97;;;4.57;;
6725;SDS011;3400;48.506;11.692;2023-08-21T01:11:18;5.10;;;4.53;;
6725;SDS011;3400;48.506;11.692;2023-08-21T01:13:47;5.00;;;4.60;;
6725;SDS011;3400;48.506;11.692;2023-08-21T01:16:20;5.00;;;4.57;;
6725;SDS011;3400;48.506;11.692;2023-08-21T01:18:48;6.87;;;4.73;;
6725;SDS011;3400;48.506;11.692;2023-08-21T01:21:16;5.37;;;4.70;;
6725;SDS011;3400;48.506;11.692;2023-08-21T01:23:46;5.23;;;4.73;;
6725;SDS011;3400;48.506;11.692;2023-08-21T01:26:13;12.97;;;5.07;;
6725;SDS011;3400;48.506;11.692;2023-08-21T01:28:41;6.90;;;5.27;;
6725;SDS011;3400;48.506;11.692;2023-08-21T01:31:11;5.00;;;4.50;;
6725;SDS011;3400;48.506;11.692;2023-08-21T01:33:40;5.57;;;5.00;;
6725;SDS011;3400;48.506;11.692;2023-08-21T01:36:10;5.60;;;5.00;;
6725;SDS011;3400;48.506;11.692;2023-08-21T01:38:38;5.00;;;4.30;;
6725;SDS011;3400;48.506;11.692;2023-08-21T01:41:07;4.97;;;4.50;;
6725;SDS011;3400;48.506;11.692;2023-08-21T01:43:35;5.87;;;5.10;;
6725;SDS011;3400;48.506;11.692;2023-08-21T01:46:03;4.77;;;4.37;;
6725;SDS011;3400;48.506;11.692;2023-08-21T01:48:30;5.67;;;4.60;;
6725;SDS011;3400;48.506;11.692;2023-08-21T01:51:00;5.20;;;4.73;;
6725;SDS011;3400;48.506;11.692;2023-08-21T01:53:28;5.17;;;4.77;;
6725;SDS011;3400;48.506;11.692;2023-08-21T01:55:55;5.37;;;4.87;;
6725;SDS011;3400;48.506;11.692;2023-08-21T01:58:24;4.93;;;4.53;;
6725;SDS011;3400;48.506;11.692;2023-08-21T02:00:52;5.57;;;5.07;;
6725;SDS011;3400;48.506;11.692;2023-08-21T02:03:20;6.93;;;5.17;;
6725;SDS011;3400;48.506;11.692;2023-08-21T02:05:48;6.00;;;5.50;;
6725;SDS011;3400;48.506;11.692;2023-08-21T02:08:16;4.90;;;4.60;;
6725;SDS011;3400;48.506;11.692;2023-08-21T02:10:50;5.57;;;5.07;;
6725;SDS011;3400;48.506;11.692;2023-08-21T02:13:18;5.00;;;4.57;;
6725;SDS011;3400;48.506;11.692;2023-08-21T02:15:48;5.50;;;5.10;;
6725;SDS011;3400;48.506;11.692;2023-08-21T02:18:15;5.47;;;5.00;;
6725;SDS011;3400;48.506;11.692;2023-08-21T02:20:43;5.97;;;5.47;;
6725;SDS011;3400;48.506;11.692;2023-08-21T02:23:11;5.93;;;5.33;;
6725;SDS011;3400;48.506;11.692;2023-08-21T02:25:38;6.30;;;5.70;;
6725;SDS011;3400;48.506;11.692;2023-08-21T02:28:06;8.40;;;5.80;;
6725;SDS011;3400;48.506;11.692;2023-08-21T02:30:34;6.63;;;6.03;;
6725;SDS011;3400;48.506;11.692;2023-08-21T02:33:03;6.60;;;6.00;;
6725;SDS011;3400;48.506;11.692;2023-08-21T02:35:31;6.23;;;5.63;;
6725;SDS011;3400;48.506;11.692;2023-08-21T02:37:58;7.30;;;5.90;;
6725;SDS011;3400;48.506;11.692;2023-08-21T02:40:26;7.10;;;5.83;;
6725;SDS011;3400;48.506;11.692;2023-08-21T02:42:54;7.13;;;6.47;;
6725;SDS011;3400;48.506;11.692;2023-08-21T02:45:21;7.17;;;6.47;;
6725;SDS011;3400;48.506;11.692;2023-08-21T02:47:49;8.13;;;5.97;;
6725;SDS011;3400;48.506;11.692;2023-08-21T02:50:18;7.13;;;6.50;;
6725;SDS011;3400;48.506;11.692;2023-08-21T02:52:46;6.93;;;6.43;;
6725;SDS011;3400;48.506;11.692;2023-08-21T02:55:14;7.27;;;6.20;;
6725;SDS011;3400;48.506;11.692;2023-08-21T02:57:42;6.33;;;5.73;;
6725;SDS011;3400;48.506;11.692;2023-08-21T03:00:10;7.23;;;6.60;;
6725;SDS011;3400;48.506;11.692;2023-08-21T03:02:38;6.53;;;6.00;;
6725;SDS011;3400;48.506;11.692;2023-08-21T03:05:09;6.87;;;6.27;;
6725;SDS011;3400;48.506;11.692;2023-08-21T03:07:38;6.77;;;5.77;;
6725;SDS011;3400;48.506;11.692;2023-08-21T03:10:06;6.37;;;5.77;;
6725;SDS011;3400;48.506;11.692;2023-08-21T03:12:34;6.53;;;5.93;;
6725;SDS011;3400;48.506;11.692;2023-08-21T03:15:02;6.67;;;5.77;;
6725;SDS011;3400;48.506;11.692;2023-08-21T03:17:30;6.80;;;6.20;;
6725;SDS011;3400;48.506;11.692;2023-08-21T03:19:59;5.73;;;5.23;;
6725;SDS011;3400;48.506;11.692;2023-08-21T03:22:26;6.30;;;5.70;;
6725;SDS011;3400;48.506;11.692;2023-08-21T03:24:55;6.37;;;5.77;;
6725;SDS011;3400;48.506;11.692;2023-08-21T03:27:24;6.07;;;5.53;;
6725;SDS011;3400;48.506;11.692;2023-08-21T03:29:51;6.40;;;5.80;;
6725;SDS011;3400;48.506;11.692;2023-08-21T03:32:19;6.23;;;5.67;;
6725;SDS011;3400;48.506;11.692;2023-08-21T03:34:47;6.67;;;5.97;;
6725;SDS011;3400;48.506;11.692;2023-08-21T03:37:15;6.57;;;6.07;;
6725;SDS011;3400;48.506;11.692;2023-08-21T03:39:42;6.70;;;6.00;;
6725;SDS011;3400;48.506;11.692;2023-08-21T03:42:12;6.30;;;5.70;;
6725;SDS011;3400;48.506;11.692;2023-08-21T03:44:40;6.60;;;6.00;;
6725;SDS011;3400;48.506;11.692;2023-08-21T03:47:07;6.67;;;5.97;;
6725;SDS011;3400;48.506;11.692;2023-08-21T03:49:44;6.93;;;6.00;;
6725;SDS011;3400;48.506;11.692;2023-08-21T03:52:13;8.43;;;6.57;;
6725;SDS011;3400;48.506;11.692;2023-08-21T03:54:41;7.30;;;6.57;;
6725;SDS011;3400;48.506;11.692;2023-08-21T03:57:09;7.13;;;6.43;;
6725;SDS011;3400;48.506;11.692;2023-08-21T03:59:38;6.67;;;6.17;;
6725;SDS011;3400;48.506;11.692;2023-08-21T04:02:06;6.83;;;6.23;;
6725;SDS011;3400;48.506;11.692;2023-08-21T04:04:34;6.53;;;6.03;;
6725;SDS011;3400;48.506;11.692;2023-08-21T04:07:01;9.60;;;6.37;;
6725;SDS011;3400;48.506;11.692;2023-08-21T04:09:29;6.10;;;5.50;;
6725;SDS011;3400;48.506;11.692;2023-08-21T04:11:57;6.30;;;5.70;;
6725;SDS011;3400;48.506;11.692;2023-08-21T04:14:24;6.50;;;5.90;;
6725;SDS011;3400;48.506;11.692;2023-08-21T04:16:54;6.17;;;5.57;;
6725;SDS011;3400;48.506;11.692;2023-08-21T04:19:21;5.03;;;4.63;;
6725;SDS011;3400;48.506;11.692;2023-08-21T04:21:50;95.77;;;8.50;;
6725;SDS011;3400;48.506;11.692;2023-08-21T04:24:18;5.53;;;5.00;;
6725;SDS011;3400;48.506;11.692;2023-08-21T04:26:46;7.37;;;5.33;;
6725;SDS011;3400;48.506;11.692;2023-08-21T04:29:13;6.50;;;5.67;;
6725;SDS011;3400;48.506;11.692;2023-08-21T04:31:43;6.20;;;5.70;;
6725;SDS011;3400;48.506;11.692;2023-08-21T04:34:12;6.13;;;5.47;;
6725;SDS011;3400;48.506;11.692;2023-08-21T04:36:40;6.23;;;5.60;;
6725;SDS011;3400;48.506;11.692;2023-08-21T04:39:07;6.83;;;6.17;;
6725;SDS011;3400;48.506;11.692;2023-08-21T04:41:35;6.50;;;5.60;;
6725;SDS011;3400;48.506;11.692;2023-08-21T04:44:03;7.13;;;6.13;;
6725;SDS011;3400;48.506;11.692;2023-08-21T04:46:31;6.33;;;5.73;;
6725;SDS011;3400;48.506;11.692;2023-08-21T04:48:59;6.10;;;5.50;;
6725;SDS011;3400;48.506;11.692;2023-08-21T04:51:28;6.17;;;5.57;;
6725;SDS011;3400;48.506;11.692;2023-08-21T04:53:58;5.83;;;5.27;;
6725;SDS011;3400;48.506;11.692;2023-08-21T04:56:26;7.07;;;5.60;;
6725;SDS011;3400;48.506;11.692;2023-08-21T04:58:55;6.77;;;5.80;;
6725;SDS011;3400;48.506;11.692;2023-08-21T05:01:25;6.00;;;5.50;;
6725;SDS011;3400;48.506;11.692;2023-08-21T05:03:53;8.43;;;5.87;;
6725;SDS011;3400;48.506;11.692;2023-08-21T05:06:20;6.17;;;5.57;;
6725;SDS011;3400;48.506;11.692;2023-08-21T05:08:51;6.33;;;5.77;;
6725;SDS011;3400;48.506;11.692;2023-08-21T05:11:19;6.90;;;6.20;;
6725;SDS011;3400;48.506;11.692;2023-08-21T05:13:47;5.97;;;5.53;;
6725;SDS011;3400;48.506;11.692;2023-08-21T05:16:17;6.23;;;5.70;;
6725;SDS011;3400;48.506;11.692;2023-08-21T05:18:45;7.10;;;6.50;;
6725;SDS011;3400;48.506;11.692;2023-08-21T05:21:14;6.50;;;5.67;;
6725;SDS011;3400;48.506;11.692;2023-08-21T05:23:42;6.10;;;5.47;;
6725;SDS011;3400;48.506;11.692;2023-08-21T05:26:12;7.67;;;6.37;;
6725;SDS011;3400;48.506;11.692;2023-08-21T05:28:39;6.63;;;6.13;;
6725;SDS011;3400;48.506;11.692;2023-08-21T05:31:07;6.90;;;6.40;;
6725;SDS011;3400;48.506;11.692;2023-08-21T05:33:45;6.67;;;6.07;;
6725;SDS011;3400;48.506;11.692;2023-08-21T05:36:14;6.67;;;6.07;;
6725;SDS011;3400;48.506;11.692;2023-08-21T05:38:42;5.93;;;5.53;;
6725;SDS011;3400;48.506;11.692;2023-08-21T05:41:11;6.50;;;5.90;;
6725;SDS011;3400;48.506;11.692;2023-08-21T05:43:39;6.67;;;5.97;;
6725;SDS011;3400;48.506;11.692;2023-08-21T05:46:08;6.40;;;5.90;;
6725;SDS011;3400;48.506;11.692;2023-08-21T05:48:37;6.57;;;5.90;;
6725;SDS011;3400;48.506;11.692;2023-08-21T05:51:06;7.57;;;6.03;;
6725;SDS011;3400;48.506;11.692;2023-08-21T05:53:33;7.10;;;6.40;;
6725;SDS011;3400;48.506;11.692;2023-08-21T05:56:02;6.40;;;5.77;;
6725;SDS011;3400;48.506;11.692;2023-08-21T05:58:31;6.73;;;6.10;;
6725;SDS011;3400;48.506;11.692;2023-08-21T06:00:59;6.73;;;6.13;;
6725;SDS011;3400;48.506;11.692;2023-08-21T06:03:27;7.90;;;7.10;;
6725;SDS011;3400;48.506;11.692;2023-08-21T06:06:13;6.80;;;6.03;;
6725;SDS011;3400;48.506;11.692;2023-08-21T06:08:41;6.03;;;5.53;;
6725;SDS011;3400;48.506;11.692;2023-08-21T06:11:09;6.80;;;6.27;;
6725;SDS011;3400;48.506;11.692;2023-08-21T06:13:38;6.37;;;5.80;;
6725;SDS011;3400;48.506;11.692;2023-08-21T06:16:06;7.43;;;6.83;;
6725;SDS011;3400;48.506;11.692;2023-08-21T06:18:37;7.83;;;7.13;;
6725;SDS011;3400;48.506;11.692;2023-08-21T06:21:04;7.10;;;6.50;;
6725;SDS011;3400;48.506;11.692;2023-08-21T06:23:32;6.93;;;6.23;;
6725;SDS011;3400;48.506;11.692;2023-08-21T06:26:00;7.87;;;7.10;;
6725;SDS011;3400;48.506;11.692;2023-08-21T06:28:28;10.33;;;7.10;;
6725;SDS011;3400;48.506;11.692;2023-08-21T06:30:57;7.97;;;7.27;;
6725;SDS011;3400;48.506;11.692;2023-08-21T06:33:28;6.60;;;5.80;;
6725;SDS011;3400;48.506;11.692;2023-08-21T06:35:56;8.07;;;7.20;;
6725;SDS011;3400;48.506;11.692;2023-08-21T06:38:23;7.37;;;6.67;;
6725;SDS011;3400;48.506;11.692;2023-08-21T06:40:51;7.67;;;6.97;;
6725;SDS011;3400;48.506;11.692;2023-08-21T06:43:19;7.27;;;6.30;;
6725;SDS011;3400;48.506;11.692;2023-08-21T06:45:49;8.17;;;7.00;;
6725;SDS011;3400;48.506;11.692;2023-08-21T06:48:19;8.00;;;7.23;;
6725;SDS011;3400;48.506;11.692;2023-08-21T06:50:47;8.63;;;7.23;;
6725;SDS011;3400;48.506;11.692;2023-08-21T06:53:14;11.30;;;8.13;;
6725;SDS011;3400;48.506;11.692;2023-08-21T06:55:44;8.10;;;7.40;;
6725;SDS011;3400;48.506;11.692;2023-08-21T06:58:12;8.07;;;7.33;;
6725;SDS011;3400;48.506;11.692;2023-08-21T07:00:39;10.13;;;7.97;;
6725;SDS011;3400;48.506;11.692;2023-08-21T07:03:07;9.97;;;8.07;;
6725;SDS011;3400;48.506;11.692;2023-08-21T07:05:36;8.97;;;8.10;;
6725;SDS011;3400;48.506;11.692;2023-08-21T07:08:04;9.23;;;8.40;;
6725;SDS011;3400;48.506;11.692;2023-08-21T07:10:35;9.03;;;8.23;;
6725;SDS011;3400;48.506;11.692;2023-08-21T07:13:03;9.03;;;8.23;;
6725;SDS011;3400;48.506;11.692;2023-08-21T07:15:31;7.43;;;6.87;;
6725;SDS011;3400;48.506;11.692;2023-08-21T07:17:58;8.70;;;7.93;;
6725;SDS011;3400;48.506;11.692;2023-08-21T07:20:26;8.07;;;7.40;;
6725;SDS011;3400;48.506;11.692;2023-08-21T07:22:55;7.47;;;6.77;;
6725;SDS011;3400;48.506;11.692;2023-08-21T07:25:23;8.63;;;7.77;;
6725;SDS011;3400;48.506;11.692;2023-08-21T07:27:51;6.93;;;6.33;;
6725;SDS011;3400;48.506;11.692;2023-08-21T07:30:19;7.83;;;6.53;;
6725;SDS011;3400;48.506;11.692;2023-08-21T07:32:47;6.93;;;6.40;;
6725;SDS011;3400;48.506;11.692;2023-08-21T07:35:15;7.47;;;6.87;;
6725;SDS011;3400;48.506;11.692;2023-08-21T07:37:43;7.67;;;7.07;;
6725;SDS011;3400;48.506;11.692;2023-08-21T07:40:12;7.40;;;6.80;;
6725;SDS011;3400;48.506;11.692;2023-08-21T07:42:40;62.43;;;9.87;;
6725;SDS011;3400;48.506;11.692;2023-08-21T07:45:08;8.00;;;7.20;;
6725;SDS011;3400;48.506;11.692;2023-08-21T07:47:36;7.30;;;6.53;;
6725;SDS011;3400;48.506;11.692;2023-08-21T07:50:04;7.50;;;6.80;;
6725;SDS011;3400;48.506;11.692;2023-08-21T07:52:32;7.83;;;7.13;;
6725;SDS011;3400;48.506;11.692;2023-08-21T07:55:00;7.40;;;6.40;;
6725;SDS011;3400;48.506;11.692;2023-08-21T07:57:29;8.13;;;7.30;;
6725;SDS011;3400;48.506;11.692;2023-08-21T07:59:57;6.77;;;6.17;;
6725;SDS011;3400;48.506;11.692;2023-08-21T08:02:25;5.93;;;5.40;;
6725;SDS011;3400;48.506;11.692;2023-08-21T08:04:53;6.87;;;5.90;;
6725;SDS011;3400;48.506;11.692;2023-08-21T08:07:20;7.17;;;6.57;;
6725;SDS011;3400;48.506;11.692;2023-08-21T08:09:48;6.90;;;5.95;;
6725;SDS011;3400;48.506;11.692;2023-08-21T08:12:17;6.53;;;5.93;;
6725;SDS011;3400;48.506;11.692;2023-08-21T08:14:46;6.35;;;5.85;;
6725;SDS011;3400;48.506;11.692;2023-08-21T08:17:13;6.50;;;6.00;;
6725;SDS011;3400;48.506;11.692;2023-08-21T08:19:41;5.65;;;5.20;;
6725;SDS011;3400;48.506;11.692;2023-08-21T08:22:09;7.05;;;6.18;;
6725;SDS011;3400;48.506;11.692;2023-08-21T08:24:36;11.00;;;6.32;;
6725;SDS011;3400;48.506;11.692;2023-08-21T08:27:04;6.10;;;5.50;;
6725;SDS011;3400;48.506;11.692;2023-08-21T08:29:32;15.05;;;6.60;;
6725;SDS011;3400;48.506;11.692;2023-08-21T08:32:01;19.42;;;7.22;;
6725;SDS011;3400;48.506;11.692;2023-08-21T08:34:29;11.52;;;6.85;;
6725;SDS011;3400;48.506;11.692;2023-08-21T08:36:57;7.05;;;6.35;;
6725;SDS011;3400;48.506;11.692;2023-08-21T08:39:24;6.93;;;6.18;;
6725;SDS011;3400;48.506;11.692;2023-08-21T08:41:54;10.50;;;6.97;;
6725;SDS011;3400;48.506;11.692;2023-08-21T08:44:24;6.97;;;6.28;;
6725;SDS011;3400;48.506;11.692;2023-08-21T08:46:52;7.35;;;6.65;;
6725;SDS011;3400;48.506;11.692;2023-08-21T08:49:21;7.00;;;6.22;;
6725;SDS011;3400;48.506;11.692;2023-08-21T08:51:49;8.00;;;6.13;;
6725;SDS011;3400;48.506;11.692;2023-08-21T08:54:19;8.77;;;8.07;;
6725;SDS011;3400;48.506;11.692;2023-08-21T08:56:47;6.85;;;6.13;;
6725;SDS011;3400;48.506;11.692;2023-08-21T08:59:15;8.38;;;7.53;;
6725;SDS011;3400;48.506;11.692;2023-08-21T09:01:42;8.50;;;7.70;;
6725;SDS011;3400;48.506;11.692;2023-08-21T09:04:10;9.48;;;6.80;;
6725;SDS011;3400;48.506;11.692;2023-08-21T09:06:39;7.00;;;6.30;;
6725;SDS011;3400;48.506;11.692;2023-08-21T09:09:07;7.20;;;6.50;;
6725;SDS011;3400;48.506;11.692;2023-08-21T09:11:36;9.40;;;7.13;;
6725;SDS011;3400;48.506;11.692;2023-08-21T09:14:09;12.88;;;7.68;;
6725;SDS011;3400;48.506;11.692;2023-08-21T09:16:37;8.27;;;6.57;;
6725;SDS011;3400;48.506;11.692;2023-08-21T09:19:05;6.57;;;6.03;;
6725;SDS011;3400;48.506;11.692;2023-08-21T09:21:32;8.90;;;6.38;;
6725;SDS011;3400;48.506;11.692;2023-08-21T09:24:02;7.90;;;5.93;;
6725;SDS011;3400;48.506;11.692;2023-08-21T09:26:30;6.28;;;5.72;;
6725;SDS011;3400;48.506;11.692;2023-08-21T09:28:58;6.75;;;5.50;;
6725;SDS011;3400;48.506;11.692;2023-08-21T09:31:29;6.03;;;5.43;;
6725;SDS011;3400;48.506;11.692;2023-08-21T09:33:58;6.43;;;5.85;;
6725;SDS011;3400;48.506;11.692;2023-08-21T09:36:26;7.40;;;6.20;;
6725;SDS011;3400;48.506;11.692;2023-08-21T09:38:54;7.25;;;6.65;;
6725;SDS011;3400;48.506;11.692;2023-08-21T09:41:23;6.63;;;6.00;;
6725;SDS011;3400;48.506;11.692;2023-08-21T09:43:51;6.88;;;6.20;;
6725;SDS011;3400;48.506;11.692;2023-08-21T09:46:23;7.03;;;6.38;;
6725;SDS011;3400;48.506;11.692;2023-08-21T09:48:51;6.57;;;5.28;;
6725;SDS011;3400;48.506;11.692;2023-08-21T09:51:19;6.88;;;6.38;;
6725;SDS011;3400;48.506;11.692;2023-08-21T09:53:48;6.57;;;5.93;;
6725;SDS011;3400;48.506;11.692;2023-08-21T09:56:17;5.75;;;5.35;;
6725;SDS011;3400;48.506;11.692;2023-08-21T09:58:47;8.40;;;5.70;;
6725;SDS011;3400;48.506;11.692;2023-08-21T10:01:15;6.55;;;5.95;;
6725;SDS011;3400;48.506;11.692;2023-08-21T10:03:44;6.78;;;6.10;;
6725;SDS011;3400;48.506;11.692;2023-08-21T10:06:14;8.00;;;5.95;;
6725;SDS011;3400;48.506;11.692;2023-08-21T10:08:43;6.18;;;5.57;;
6725;SDS011;3400;48.506;11.692;2023-08-21T10:11:13;6.05;;;5.22;;
6725;SDS011;3400;48.506;11.692;2023-08-21T10:13:41;6.25;;;5.65;;
6725;SDS011;3400;48.506;11.692;2023-08-21T10:16:10;7.03;;;5.63;;
6725;SDS011;3400;48.506;11.692;2023-08-21T10:18:42;5.70;;;5.22;;
6725;SDS011;3400;48.506;11.692;2023-08-21T10:21:11;5.90;;;5.35;;
6725;SDS011;3400;48.506;11.692;2023-08-21T10:23:39;5.95;;;5.45;;
6725;SDS011;3400;48.506;11.692;2023-08-21T10:26:07;7.43;;;5.78;;
6725;SDS011;3400;48.506;11.692;2023-08-21T10:28:42;5.90;;;5.50;;
6725;SDS011;3400;48.506;11.692;2023-08-21T10:34:03;5.80;;;5.38;;
6725;SDS011;3400;48.506;11.692;2023-08-21T10:37:02;5.50;;;5.10;;
6725;SDS011;3400;48.506;11.692;2023-08-21T10:39:31;5.60;;;5.13;;
6725;SDS011;3400;48.506;11.692;2023-08-21T10:42:01;6.05;;;5.55;;
6725;SDS011;3400;48.506;11.692;2023-08-21T10:44:36;5.90;;;5.50;;
6725;SDS011;3400;48.506;11.692;2023-08-21T10:47:14;6.55;;;5.97;;
6725;SDS011;3400;48.506;11.692;2023-08-21T10:49:44;6.82;;;6.32;;
6725;SDS011;3400;48.506;11.692;2023-08-21T10:52:12;6.30;;;5.70;;
6725;SDS011;3400;48.506;11.692;2023-08-21T10:54:44;5.63;;;5.13;;
6725;SDS011;3400;48.506;11.692;2023-08-21T10:57:12;5.57;;;5.18;;
6725;SDS011;3400;48.506;11.692;2023-08-21T10:59:48;5.47;;;4.88;;
6725;SDS011;3400;48.506;11.692;2023-08-21T11:02:16;5.65;;;5.05;;
6725;SDS011;3400;48.506;11.692;2023-08-21T11:04:45;5.72;;;5.13;;
6725;SDS011;3400;48.506;11.692;2023-08-21T11:07:13;6.78;;;5.28;;
6725;SDS011;3400;48.506;11.692;2023-08-21T11:09:41;5.82;;;5.35;;
6725;SDS011;3400;48.506;11.692;2023-08-21T11:12:09;5.40;;;4.90;;
6725;SDS011;3400;48.506;11.692;2023-08-21T11:14:37;5.15;;;4.70;;
6725;SDS011;3400;48.506;11.692;2023-08-21T11:17:05;5.03;;;4.63;;
6725;SDS011;3400;48.506;11.692;2023-08-21T11:19:34;5.15;;;4.70;;
6725;SDS011;3400;48.506;11.692;2023-08-21T11:22:03;5.90;;;5.30;;
6725;SDS011;3400;48.506;11.692;2023-08-21T11:24:39;9.70;;;4.57;;
6725;SDS011;3400;48.506;11.692;2023-08-21T11:27:06;4.65;;;4.15;;
6725;SDS011;3400;48.506;11.692;2023-08-21T11:29:38;4.93;;;3.95;;
6725;SDS011;3400;48.506;11.692;2023-08-21T11:32:10;5.00;;;4.50;;
6725;SDS011;3400;48.506;11.692;2023-08-21T11:34:37;6.03;;;4.68;;
6725;SDS011;3400;48.506;11.692;2023-08-21T11:37:07;4.40;;;4.10;;
6725;SDS011;3400;48.506;11.692;2023-08-21T11:39:39;4.45;;;4.13;;
6725;SDS011;3400;48.506;11.692;2023-08-21T11:42:08;4.95;;;4.20;;
6725;SDS011;3400;48.506;11.692;2023-08-21T11:44:40;4.40;;;4.00;;
6725;SDS011;3400;48.506;11.692;2023-08-21T11:47:08;5.65;;;4.32;;
6725;SDS011;3400;48.506;11.692;2023-08-21T11:49:36;4.82;;;4.43;;
6725;SDS011;3400;48.506;11.692;2023-08-21T11:52:04;4.45;;;4.05;;
6725;SDS011;3400;48.506;11.692;2023-08-21T11:54:34;7.05;;;4.72;;
6725;SDS011;3400;48.506;11.692;2023-08-21T11:57:05;5.00;;;4.60;;
6725;SDS011;3400;48.506;11.692;2023-08-21T11:59:33;5.15;;;4.75;;
6725;SDS011;3400;48.506;11.692;2023-08-21T12:02:02;4.60;;;4.05;;
6725;SDS011;3400;48.506;11.692;2023-08-21T12:04:35;4.78;;;4.38;;
6725;SDS011;3400;48.506;11.692;2023-08-21T12:07:03;4.90;;;4.45;;
6725;SDS011;3400;48.506;11.692;2023-08-21T12:09:31;4.90;;;4.50;;
6725;SDS011;3400;48.506;11.692;2023-08-21T12:12:00;5.30;;;4.82;;
6725;SDS011;3400;48.506;11.692;2023-08-21T12:14:28;5.00;;;4.50;;
6725;SDS011;3400;48.506;11.692;2023-08-21T12:16:56;5.38;;;4.30;;
6725;SDS011;3400;48.506;11.692;2023-08-21T12:19:23;5.28;;;3.65;;
6725;SDS011;3400;48.506;11.692;2023-08-21T12:21:51;4.50;;;3.70;;
6725;SDS011;3400;48.506;11.692;2023-08-21T12:24:19;4.30;;;4.00;;
6725;SDS011;3400;48.506;11.692;2023-08-21T12:26:47;5.60;;;3.97;;
6725;SDS011;3400;48.506;11.692;2023-08-21T12:29:16;4.97;;;4.32;;
6725;SDS011;3400;48.506;11.692;2023-08-21T12:31:43;5.93;;;4.07;;
6725;SDS011;3400;48.506;11.692;2023-08-21T12:34:12;5.03;;;3.90;;
6725;SDS011;3400;48.506;11.692;2023-08-21T12:36:40;4.35;;;3.53;;
6725;SDS011;3400;48.506;11.692;2023-08-21T12:39:07;5.18;;;3.67;;
6725;SDS011;3400;48.506;11.692;2023-08-21T12:41:35;7.78;;;3.88;;
6725;SDS011;3400;48.506;11.692;2023-08-21T12:44:03;4.10;;;3.78;;
6725;SDS011;3400;48.506;11.692;2023-08-21T12:46:35;5.50;;;3.90;;
6725;SDS011;3400;48.506;11.692;2023-08-21T12:49:03;5.70;;;3.28;;
6725;SDS011;3400;48.506;11.692;2023-08-21T12:51:31;5.80;;;3.55;;
6725;SDS011;3400;48.506;11.692;2023-08-21T12:53:58;3.67;;;3.35;;
6725;SDS011;3400;48.506;11.692;2023-08-21T12:56:26;7.93;;;3.63;;
6725;SDS011;3400;48.506;11.692;2023-08-21T12:58:54;6.32;;;3.55;;
6725;SDS011;3400;48.506;11.692;2023-08-21T13:01:21;3.75;;;3.00;;
6725;SDS011;3400;48.506;11.692;2023-08-21T13:03:51;3.30;;;3.00;;
6725;SDS011;3400;48.506;11.692;2023-08-21T13:06:19;3.67;;;2.60;;
6725;SDS011;3400;48.506;11.692;2023-08-21T13:08:46;3.75;;;3.22;;
6725;SDS011;3400;48.506;11.692;2023-08-21T13:11:14;3.42;;;2.88;;
6725;SDS011;3400;48.506;11.692;2023-08-21T13:13:42;4.35;;;3.28;;
6725;SDS011;3400;48.506;11.692;2023-08-21T13:16:10;3.47;;;3.17;;
6725;SDS011;3400;48.506;11.692;2023-08-21T13:18:38;5.68;;;3.75;;
6725;SDS011;3400;48.506;11.692;2023-08-21T13:21:07;3.00;;;2.80;;
6725;SDS011;3400;48.506;11.692;2023-08-21T13:23:35;3.50;;;3.03;;
6725;SDS011;3400;48.506;11.692;2023-08-21T13:26:03;4.20;;;3.00;;
6725;SDS011;3400;48.506;11.692;2023-08-21T13:28:30;3.90;;;3.50;;
6725;SDS011;3400;48.506;11.692;2023-08-21T13:30:59;4.05;;;3.05;;
6725;SDS011;3400;48.506;11.692;2023-08-21T13:33:27;3.20;;;2.90;;
6725;SDS011;3400;48.506;11.692;2023-08-21T13:35:56;3.70;;;3.15;;
6725;SDS011;3400;48.506;11.692;2023-08-21T13:38:25;3.53;;;3.25;;
6725;SDS011;3400;48.506;11.692;2023-08-21T13:40:52;4.90;;;3.38;;
6725;SDS011;3400;48.506;11.692;2023-08-21T13:43:20;4.55;;;3.10;;
6725;SDS011;3400;48.506;11.692;2023-08-21T13:45:48;4.10;;;3.80;;
6725;SDS011;3400;48.506;11.692;2023-08-21T13:48:15;7.72;;;3.70;;
6725;SDS011;3400;48.506;11.692;2023-08-21T13:50:43;5.43;;;3.83;;
6725;SDS011;3400;48.506;11.692;2023-08-21T13:53:11;4.00;;;3.53;;
6725;SDS011;3400;48.506;11.692;2023-08-21T13:55:40;4.03;;;3.13;;
6725;SDS011;3400;48.506;11.692;2023-08-21T13:58:08;4.15;;;3.50;;
6725;SDS011;3400;48.506;11.692;2023-08-21T14:00:35;4.00;;;3.60;;
6725;SDS011;3400;48.506;11.692;2023-08-21T14:03:03;3.60;;;3.30;;
6725;SDS011;3400;48.506;11.692;2023-08-21T14:05:31;3.63;;;3.33;;
6725;SDS011;3400;48.506;11.692;2023-08-21T14:07:59;3.42;;;3.17;;
6725;SDS011;3400;48.506;11.692;2023-08-21T14:10:26;4.05;;;3.28;;
6725;SDS011;3400;48.506;11.692;2023-08-21T14:12:57;3.40;;;3.10;;
6725;SDS011;3400;48.506;11.692;2023-08-21T14:15:25;4.43;;;4.03;;
6725;SDS011;3400;48.506;11.692;2023-08-21T14:17:53;4.07;;;3.47;;
6725;SDS011;3400;48.506;11.692;2023-08-21T14:20:20;8.23;;;3.80;;
6725;SDS011;3400;48.506;11.692;2023-08-21T14:22:48;3.97;;;3.60;;
6725;SDS011;3400;48.506;11.692;2023-08-21T14:25:16;4.55;;;4.15;;
6725;SDS011;3400;48.506;11.692;2023-08-21T14:27:44;4.57;;;3.92;;
6725;SDS011;3400;48.506;11.692;2023-08-21T14:30:13;4.43;;;4.03;;
6725;SDS011;3400;48.506;11.692;2023-08-21T14:32:41;3.78;;;3.47;;
6725;SDS011;3400;48.506;11.692;2023-08-21T14:35:08;4.07;;;3.70;;
6725;SDS011;3400;48.506;11.692;2023-08-21T14:37:36;4.28;;;3.88;;
6725;SDS011;3400;48.506;11.692;2023-08-21T14:40:05;6.88;;;3.90;;
6725;SDS011;3400;48.506;11.692;2023-08-21T14:42:35;5.97;;;3.78;;
6725;SDS011;3400;48.506;11.692;2023-08-21T14:45:03;4.05;;;3.65;;
6725;SDS011;3400;48.506;11.692;2023-08-21T14:47:32;4.65;;;3.75;;
6725;SDS011;3400;48.506;11.692;2023-08-21T14:50:01;4.20;;;3.70;;
6725;SDS011;3400;48.506;11.692;2023-08-21T14:52:29;3.85;;;3.55;;
6725;SDS011;3400;48.506;11.692;2023-08-21T14:54:57;5.25;;;4.00;;
6725;SDS011;3400;48.506;11.692;2023-08-21T14:57:24;9.07;;;5.15;;
6725;SDS011;3400;48.506;11.692;2023-08-21T14:59:52;5.45;;;4.25;;
6725;SDS011;3400;48.506;11.692;2023-08-21T15:02:20;6.85;;;4.40;;
6725;SDS011;3400;48.506;11.692;2023-08-21T15:04:49;7.75;;;4.20;;
6725;SDS011;3400;48.506;11.692;2023-08-21T15:07:16;5.80;;;3.97;;
6725;SDS011;3400;48.506;11.692;2023-08-21T15:09:44;4.07;;;3.58;;
6725;SDS011;3400;48.506;11.692;2023-08-21T15:12:12;28.15;;;4.97;;